createdAt,value
2022-09-14T00:01:49.633Z,4.53
2022-09-14T00:04:19.847Z,5.55
2022-09-14T00:06:48.430Z,3.90
2022-09-14T00:09:18.746Z,5.30
2022-09-14T00:11:47.304Z,4.07
2022-09-14T00:14:16.108Z,4.60
2022-09-14T00:16:44.893Z,2.50
2022-09-14T00:19:32.282Z,1.92
2022-09-14T00:22:00.946Z,11.13
2022-09-14T00:24:32.614Z,3.35
2022-09-14T00:27:03.577Z,2.50
2022-09-14T00:29:34.043Z,5.43
2022-09-14T00:32:05.053Z,5.05
2022-09-14T00:34:34.999Z,3.10
2022-09-14T00:37:04.046Z,10.65
2022-09-14T00:39:33.046Z,11.50
2022-09-14T00:42:02.086Z,6.55
2022-09-14T00:44:33.749Z,3.83
2022-09-14T00:47:03.745Z,6.57
2022-09-14T00:49:34.222Z,4.63
2022-09-14T00:52:08.779Z,4.53
2022-09-14T00:54:44.711Z,5.47
2022-09-14T00:57:13.284Z,10.30
2022-09-14T00:59:43.377Z,1.70
2022-09-14T01:02:14.729Z,8.52
2022-09-14T01:04:45.040Z,6.15
2022-09-14T01:07:23.067Z,3.75
2022-09-14T01:09:57.391Z,2.65
2022-09-14T01:14:59.424Z,9.25
2022-09-14T01:17:33.083Z,5.20
2022-09-14T01:20:10.882Z,4.90
2022-09-14T01:23:05.160Z,4.60
2022-09-14T01:25:39.577Z,5.65
2022-09-14T01:30:36.510Z,2.22
2022-09-14T01:33:11.143Z,3.17
2022-09-14T01:35:45.608Z,5.82
2022-09-14T01:38:19.446Z,4.72
2022-09-14T01:40:49.915Z,5.07
2022-09-14T01:43:23.496Z,7.28
2022-09-14T01:45:55.051Z,2.35
2022-09-14T01:48:28.080Z,3.83
2022-09-14T01:50:58.354Z,5.38
2022-09-14T01:53:26.392Z,3.60
2022-09-14T01:56:04.191Z,11.27
2022-09-14T01:58:37.136Z,4.72
2022-09-14T02:01:07.220Z,3.72
2022-09-14T02:03:41.149Z,4.50
2022-09-14T02:06:20.317Z,6.63
2022-09-14T02:08:49.460Z,2.33
2022-09-14T02:11:18.445Z,5.95
2022-09-14T02:13:47.099Z,6.25
2022-09-14T02:16:15.703Z,8.07
2022-09-14T02:18:45.256Z,13.60
2022-09-14T02:21:19.775Z,4.47
2022-09-14T02:23:50.033Z,5.80
2022-09-14T02:26:19.775Z,8.93
2022-09-14T02:28:55.749Z,6.22
2022-09-14T02:31:35.103Z,6.30
2022-09-14T02:34:14.864Z,5.10
2022-09-14T02:36:49.613Z,8.70
2022-09-14T02:39:34.244Z,3.40
2022-09-14T02:42:14.649Z,6.85
2022-09-14T02:44:51.555Z,6.38
2022-09-14T02:47:25.869Z,6.35
2022-09-14T02:50:07.887Z,9.35
2022-09-14T02:53:02.532Z,4.88
2022-09-14T02:55:33.548Z,2.55
2022-09-14T02:58:09.051Z,9.65
2022-09-14T03:00:40.289Z,5.82
2022-09-14T03:03:22.769Z,4.72
2022-09-14T03:05:51.485Z,5.10
2022-09-14T03:08:19.859Z,9.30
2022-09-14T03:10:48.239Z,7.47
2022-09-14T03:13:17.349Z,6.13
2022-09-14T03:15:48.296Z,4.13
2022-09-14T03:18:19.213Z,7.47
2022-09-14T03:20:48.065Z,16.50
2022-09-14T03:23:16.324Z,8.25
2022-09-14T03:25:45.386Z,8.90
2022-09-14T03:28:14.478Z,6.07
2022-09-14T03:30:44.868Z,8.15
2022-09-14T03:33:23.730Z,9.95
2022-09-14T03:35:52.917Z,14.02
2022-09-14T03:38:22.593Z,9.02
2022-09-14T03:40:53.129Z,9.30
2022-09-14T03:43:21.964Z,12.55
2022-09-14T03:45:51.744Z,5.00
2022-09-14T03:48:21.888Z,11.20
2022-09-14T03:50:51.250Z,7.43
2022-09-14T03:53:19.840Z,6.82
2022-09-14T03:55:50.765Z,11.73
2022-09-14T03:58:24.185Z,11.20
2022-09-14T04:00:54.968Z,8.25
2022-09-14T04:03:27.443Z,15.48
2022-09-14T04:05:57.445Z,5.47
2022-09-14T04:08:25.915Z,12.00
2022-09-14T04:10:54.629Z,7.18
2022-09-14T04:13:23.893Z,11.48
2022-09-14T04:16:00.045Z,9.63
2022-09-14T04:18:30.543Z,6.35
2022-09-14T04:21:07.267Z,6.88
2022-09-14T04:24:03.003Z,11.90
2022-09-14T04:26:28.403Z,10.68
2022-09-14T04:28:59.305Z,4.57
2022-09-14T04:31:31.342Z,18.10
2022-09-14T04:34:01.646Z,8.82
2022-09-14T04:36:34.576Z,9.10
2022-09-14T04:39:04.652Z,11.85
2022-09-14T04:41:33.071Z,12.90
2022-09-14T04:44:02.857Z,13.30
2022-09-14T04:46:35.840Z,14.80
2022-09-14T04:49:06.638Z,8.32
2022-09-14T04:51:36.252Z,12.85
2022-09-14T04:54:07.188Z,17.15
2022-09-14T04:56:37.512Z,15.45
2022-09-14T04:59:07.083Z,13.48
2022-09-14T05:01:37.641Z,5.88
2022-09-14T05:04:06.527Z,6.68
2022-09-14T05:06:36.233Z,6.43
2022-09-14T05:09:07.348Z,5.28
2022-09-14T05:11:37.794Z,8.48
2022-09-14T05:14:07.115Z,13.10
2022-09-14T05:16:40.508Z,7.57
2022-09-14T05:19:09.874Z,8.25
2022-09-14T05:21:39.018Z,8.35
2022-09-14T05:24:12.890Z,10.10
2022-09-14T05:26:41.765Z,10.43
2022-09-14T05:29:14.707Z,3.50
2022-09-14T05:34:14.921Z,6.38
2022-09-14T05:36:45.760Z,7.20
2022-09-14T05:39:14.115Z,6.50
2022-09-14T05:41:42.487Z,6.70
2022-09-14T05:44:11.782Z,4.18
2022-09-14T05:46:41.315Z,12.00
2022-09-14T05:49:11.257Z,8.00
2022-09-14T05:51:41.011Z,7.15
2022-09-14T05:54:11.601Z,8.77
2022-09-14T05:56:40.661Z,4.35
2022-09-14T05:59:10.762Z,8.63
2022-09-14T06:01:41.812Z,10.38
2022-09-14T06:04:12.412Z,6.25
2022-09-14T06:06:40.764Z,10.75
2022-09-14T06:09:11.031Z,10.27
2022-09-14T06:11:39.326Z,10.90
2022-09-14T06:14:08.239Z,10.55
2022-09-14T06:16:37.160Z,10.93
2022-09-14T06:19:05.876Z,7.28
2022-09-14T06:21:35.971Z,10.10
2022-09-14T06:24:05.498Z,13.60
2022-09-14T06:26:34.230Z,14.55
2022-09-14T06:29:04.173Z,12.88
2022-09-14T06:31:34.881Z,10.80
2022-09-14T06:34:06.809Z,14.77
2022-09-14T06:36:37.586Z,16.65
2022-09-14T06:39:08.076Z,11.73
2022-09-14T06:41:37.841Z,9.95
2022-09-14T06:44:06.551Z,10.93
2022-09-14T06:46:37.524Z,10.10
2022-09-14T06:49:08.530Z,15.38
2022-09-14T06:51:42.065Z,13.23
2022-09-14T06:54:12.859Z,11.35
2022-09-14T06:56:43.705Z,7.50
2022-09-14T06:59:13.191Z,15.32
2022-09-14T07:01:42.422Z,11.80
2022-09-14T07:04:11.706Z,11.95
2022-09-14T07:06:44.568Z,15.18
2022-09-14T07:09:14.092Z,9.60
2022-09-14T07:11:43.243Z,14.63
2022-09-14T07:14:11.826Z,16.35
2022-09-14T07:16:41.751Z,7.22
2022-09-14T07:19:13.993Z,10.88
2022-09-14T07:21:43.926Z,14.68
2022-09-14T07:24:14.754Z,12.63
2022-09-14T07:26:43.553Z,12.38
2022-09-14T07:29:14.292Z,13.02
2022-09-14T07:31:46.599Z,11.20
2022-09-14T07:34:16.122Z,13.15
2022-09-14T07:36:45.455Z,17.30
2022-09-14T07:39:15.201Z,15.82
2022-09-14T07:41:44.353Z,13.57
2022-09-14T07:44:15.312Z,14.10
2022-09-14T07:46:44.504Z,14.77
2022-09-14T07:49:13.917Z,14.57
2022-09-14T07:51:43.177Z,15.95
2022-09-14T07:54:12.624Z,15.27
2022-09-14T07:56:41.183Z,18.83
2022-09-14T08:02:05.997Z,11.32
2022-09-14T08:04:39.256Z,23.52
2022-09-14T08:07:09.130Z,20.92
2022-09-14T08:09:46.820Z,16.02
2022-09-14T08:12:21.774Z,17.60
2022-09-14T08:14:53.592Z,20.08
2022-09-14T08:17:24.055Z,18.20
2022-09-14T08:19:53.060Z,15.48
2022-09-14T08:22:23.300Z,15.07
2022-09-14T08:24:54.189Z,21.10
2022-09-14T08:27:22.816Z,15.18
2022-09-14T08:29:52.072Z,14.27
2022-09-14T08:32:22.616Z,18.23
2022-09-14T08:34:52.024Z,14.05
2022-09-14T08:37:21.151Z,11.82
2022-09-14T08:39:51.851Z,18.55
2022-09-14T08:42:22.936Z,17.70
2022-09-14T08:44:56.432Z,15.95
2022-09-14T08:47:29.144Z,17.67
2022-09-14T08:50:06.501Z,13.98
2022-09-14T08:52:42.485Z,18.38
2022-09-14T08:55:16.619Z,12.68
2022-09-14T08:57:49.902Z,24.00
2022-09-14T09:00:21.865Z,12.85
2022-09-14T09:03:25.369Z,15.32
2022-09-14T09:06:07.454Z,24.15
2022-09-14T09:08:54.181Z,12.63
2022-09-14T09:11:23.380Z,15.38
2022-09-14T09:13:52.780Z,10.60
2022-09-14T09:16:24.318Z,9.05
2022-09-14T09:18:55.316Z,10.45
2022-09-14T09:21:36.494Z,10.35
2022-09-14T09:24:25.716Z,16.42
2022-09-14T09:26:54.311Z,13.77
2022-09-14T09:29:22.944Z,12.95
2022-09-14T09:32:13.786Z,9.50
2022-09-14T09:35:01.460Z,10.18
2022-09-14T09:37:43.463Z,13.10
2022-09-14T09:40:22.130Z,12.75
2022-09-14T09:43:06.813Z,7.50
2022-09-14T09:45:53.006Z,8.32
2022-09-14T09:48:24.311Z,13.10
2022-09-14T09:51:04.497Z,10.45
2022-09-14T09:53:34.952Z,8.38
2022-09-14T09:56:03.764Z,15.05
2022-09-14T09:58:35.579Z,7.55
2022-09-14T10:01:23.318Z,7.45
2022-09-14T10:04:05.802Z,10.10
2022-09-14T10:06:42.245Z,10.88
2022-09-14T10:09:15.133Z,7.88
2022-09-14T10:11:45.147Z,13.23
2022-09-14T10:14:32.563Z,9.23
2022-09-14T10:17:08.724Z,10.10
2022-09-14T10:19:37.707Z,8.77
2022-09-14T10:22:17.551Z,10.20
2022-09-14T10:24:54.005Z,12.18
2022-09-14T10:27:40.556Z,11.80
2022-09-14T10:30:20.875Z,10.18
2022-09-14T10:33:09.647Z,8.35
2022-09-14T10:36:02.535Z,9.82
2022-09-14T10:38:42.731Z,7.45
2022-09-14T10:41:24.392Z,9.13
2022-09-14T10:44:05.290Z,7.25
2022-09-14T10:47:04.956Z,5.00
2022-09-14T10:49:44.901Z,6.05
2022-09-14T10:52:16.538Z,7.68
2022-09-14T10:54:54.431Z,5.32
2022-09-14T10:57:25.213Z,13.32
2022-09-14T10:59:59.088Z,10.18
2022-09-14T11:02:45.496Z,7.85
2022-09-14T11:05:22.579Z,8.93
2022-09-14T11:07:53.327Z,9.10
2022-09-14T11:10:27.754Z,11.27
2022-09-14T11:13:22.516Z,8.07
2022-09-14T11:18:21.484Z,14.75
2022-09-14T11:21:09.289Z,12.75
2022-09-14T11:23:46.632Z,12.32
2022-09-14T11:26:17.989Z,18.45
2022-09-14T11:28:59.668Z,18.08
2022-09-14T11:31:30.736Z,12.63
2022-09-14T11:34:20.064Z,13.50
2022-09-14T11:37:07.669Z,15.57
2022-09-14T11:39:38.773Z,17.00
2022-09-14T11:42:10.565Z,15.90
2022-09-14T11:44:44.642Z,14.10
2022-09-14T11:47:14.488Z,11.25
2022-09-14T11:49:48.524Z,14.65
2022-09-14T11:52:21.789Z,11.70
2022-09-14T11:54:51.015Z,9.30
2022-09-14T11:57:25.033Z,8.10
2022-09-14T12:02:28.728Z,10.07
2022-09-14T12:05:06.761Z,8.35
2022-09-14T12:07:42.213Z,6.07
2022-09-14T12:10:16.582Z,10.85
2022-09-14T12:12:54.653Z,10.02
2022-09-14T12:15:26.019Z,7.15
2022-09-14T12:18:14.797Z,7.80
2022-09-14T12:20:44.037Z,12.05
2022-09-14T12:23:30.118Z,10.60
2022-09-14T12:26:03.610Z,8.82
2022-09-14T12:28:37.883Z,10.98
2022-09-14T12:33:34.702Z,10.45
2022-09-14T12:36:22.157Z,8.32
2022-09-14T12:38:53.388Z,8.77
2022-09-14T12:41:21.363Z,7.47
2022-09-14T12:43:52.514Z,6.80
2022-09-14T12:46:20.870Z,2.67
2022-09-14T12:48:49.153Z,3.05
2022-09-14T12:51:20.284Z,3.80
2022-09-14T12:53:51.246Z,3.05
2022-09-14T12:56:23.078Z,2.80
2022-09-14T12:58:59.243Z,4.03
2022-09-14T13:01:46.130Z,3.90
2022-09-14T13:04:16.324Z,3.67
2022-09-14T13:06:45.852Z,10.40
2022-09-14T13:09:24.617Z,1.45
2022-09-14T13:12:01.608Z,2.63
2022-09-14T13:14:46.207Z,2.58
2022-09-14T13:17:15.836Z,4.72
2022-09-14T13:19:44.644Z,2.83
2022-09-14T13:22:23.890Z,5.32
2022-09-14T13:24:53.591Z,2.35
2022-09-14T13:27:21.708Z,7.57
2022-09-14T13:30:02.472Z,2.55
2022-09-14T13:32:49.957Z,3.80
2022-09-14T13:35:39.448Z,7.68
2022-09-14T13:38:10.647Z,4.45
2022-09-14T13:40:40.977Z,4.43
2022-09-14T13:43:10.260Z,5.35
2022-09-14T13:45:40.222Z,2.95
2022-09-14T13:48:14.593Z,4.05
2022-09-14T13:50:49.517Z,3.65
2022-09-14T13:53:42.523Z,7.70
2022-09-14T13:56:22.165Z,2.78
2022-09-14T13:58:52.092Z,5.80
2022-09-14T14:01:26.137Z,5.65
2022-09-14T14:03:54.957Z,6.72
2022-09-14T14:06:23.681Z,2.72
2022-09-14T14:08:56.945Z,2.80
2022-09-14T14:11:30.955Z,2.33
2022-09-14T14:14:18.230Z,3.35
2022-09-14T14:17:05.707Z,5.30
2022-09-14T14:19:35.771Z,3.17
2022-09-14T14:22:18.787Z,5.90
2022-09-14T14:25:14.230Z,7.05
2022-09-14T14:27:44.219Z,4.70
2022-09-14T14:30:17.411Z,2.20
2022-09-14T14:33:06.686Z,2.05
2022-09-14T14:35:39.672Z,2.45
2022-09-14T14:38:10.636Z,1.33
2022-09-14T14:40:39.983Z,1.60
2022-09-14T14:43:11.006Z,1.40
2022-09-14T14:45:40.255Z,2.03
2022-09-14T14:48:10.627Z,1.98
2022-09-14T14:50:41.158Z,2.88
2022-09-14T14:53:10.274Z,1.77
2022-09-14T14:55:39.736Z,2.83
2022-09-14T14:58:09.918Z,3.53
2022-09-14T15:00:41.941Z,9.63
2022-09-14T15:03:20.447Z,4.13
2022-09-14T15:05:51.268Z,3.50
2022-09-14T15:08:23.853Z,1.40
2022-09-14T15:10:57.227Z,4.05
2022-09-14T15:13:28.116Z,2.22
2022-09-14T15:15:56.604Z,3.63
2022-09-14T15:18:24.846Z,3.17
2022-09-14T15:20:53.778Z,1.73
2022-09-14T15:23:22.144Z,2.65
2022-09-14T15:25:52.512Z,5.90
2022-09-14T15:28:23.333Z,3.13
2022-09-14T15:30:53.993Z,1.92
2022-09-14T15:33:38.705Z,2.47
2022-09-14T15:36:13.544Z,4.13
2022-09-14T15:38:46.505Z,4.63
2022-09-14T15:41:16.220Z,3.88
2022-09-14T15:43:44.681Z,8.15
2022-09-14T15:46:15.311Z,7.13
2022-09-14T15:48:43.918Z,6.10
2022-09-14T15:51:13.467Z,5.22
2022-09-14T15:53:42.355Z,3.85
2022-09-14T15:56:11.831Z,3.83
2022-09-14T15:58:42.767Z,6.57
2022-09-14T16:01:17.011Z,9.25
2022-09-14T16:03:57.233Z,4.90
2022-09-14T16:06:29.437Z,6.93
2022-09-14T16:09:04.711Z,4.50
2022-09-14T16:11:39.467Z,7.32
2022-09-14T16:14:09.905Z,11.43
2022-09-14T16:16:40.346Z,4.13
2022-09-14T16:19:12.529Z,3.95
2022-09-14T16:21:43.020Z,7.53
2022-09-14T16:24:15.642Z,5.60
2022-09-14T16:26:45.577Z,8.93
2022-09-14T16:29:17.232Z,8.50
2022-09-14T16:31:48.819Z,11.40
2022-09-14T16:34:19.950Z,8.30
2022-09-14T16:36:49.418Z,10.02
2022-09-14T16:39:20.997Z,9.90
2022-09-14T16:41:51.185Z,9.68
2022-09-14T16:44:24.545Z,10.20
2022-09-14T16:46:54.117Z,10.43
2022-09-14T16:49:27.248Z,12.82
2022-09-14T16:51:56.482Z,14.10
2022-09-14T16:54:26.410Z,17.58
2022-09-14T16:56:59.237Z,18.15
2022-09-14T16:59:29.739Z,17.20
2022-09-14T17:01:58.649Z,28.63
2022-09-14T17:04:27.450Z,22.90
2022-09-14T17:06:56.893Z,23.48
2022-09-14T17:09:29.031Z,22.13
2022-09-14T17:12:06.288Z,23.13
2022-09-14T17:14:35.208Z,19.67
2022-09-14T17:17:04.084Z,25.85
2022-09-14T17:19:34.164Z,30.95
2022-09-14T17:22:10.470Z,31.35
2022-09-14T17:24:44.977Z,37.53
2022-09-14T17:27:22.598Z,29.52
2022-09-14T17:29:52.892Z,27.50
2022-09-14T17:32:22.733Z,27.15
2022-09-14T17:34:55.291Z,29.27
2022-09-14T17:37:29.139Z,24.60
2022-09-14T17:40:11.879Z,28.60
2022-09-14T17:42:43.693Z,27.02
2022-09-14T17:45:13.376Z,22.27
2022-09-14T17:47:52.128Z,29.17
2022-09-14T17:50:23.472Z,21.92
2022-09-14T17:52:52.301Z,25.92
2022-09-14T17:55:21.918Z,21.98
2022-09-14T17:57:50.395Z,18.88
2022-09-14T18:00:20.905Z,16.05
2022-09-14T18:03:09.297Z,22.10
2022-09-14T18:05:39.015Z,17.02
2022-09-14T18:08:21.315Z,17.38
2022-09-14T18:11:09.256Z,16.27
2022-09-14T18:13:46.397Z,14.20
2022-09-14T18:16:25.580Z,22.05
2022-09-14T18:19:13.435Z,17.63
2022-09-14T18:21:51.555Z,20.40
2022-09-14T18:24:26.904Z,17.85
2022-09-14T18:27:10.076Z,12.00
2022-09-14T18:29:43.337Z,20.17
2022-09-14T18:32:20.841Z,16.55
2022-09-14T18:34:51.974Z,17.73
2022-09-14T18:37:22.887Z,15.35
2022-09-14T18:39:51.560Z,23.17
2022-09-14T18:42:20.971Z,14.15
2022-09-14T18:44:53.896Z,16.45
2022-09-14T18:47:36.274Z,20.45
2022-09-14T18:50:09.973Z,18.85
2022-09-14T18:52:57.218Z,19.70
2022-09-14T18:55:28.020Z,16.73
2022-09-14T18:58:09.033Z,20.33
2022-09-14T19:00:45.900Z,22.38
2022-09-14T19:03:33.868Z,22.83
2022-09-14T19:06:09.800Z,18.00
2022-09-14T19:08:43.896Z,17.00
2022-09-14T19:11:17.578Z,18.58
2022-09-14T19:13:47.879Z,14.32
2022-09-14T19:16:18.842Z,21.77
2022-09-14T19:18:48.539Z,33.40
2022-09-14T19:21:23.723Z,32.40
2022-09-14T19:23:57.092Z,26.73
2022-09-14T19:26:28.292Z,22.65
2022-09-14T19:29:00.288Z,21.92
2022-09-14T19:31:30.559Z,21.70
2022-09-14T19:33:59.903Z,22.95
2022-09-14T19:36:29.361Z,19.85
2022-09-14T19:39:02.118Z,20.65
2022-09-14T19:41:34.698Z,20.70
2022-09-14T19:44:07.652Z,23.27
2022-09-14T19:46:42.251Z,26.23
2022-09-14T19:49:22.749Z,22.63
2022-09-14T19:51:51.292Z,25.73
2022-09-14T19:54:19.986Z,20.17
2022-09-14T19:56:50.257Z,24.95
2022-09-14T19:59:19.403Z,27.20
2022-09-14T20:01:49.395Z,26.05
2022-09-14T20:04:19.256Z,23.42
2022-09-14T20:06:48.525Z,25.05
2022-09-14T20:09:18.772Z,19.50
2022-09-14T20:11:52.798Z,23.63
2022-09-14T20:14:23.985Z,21.23
2022-09-14T20:16:56.821Z,20.77
2022-09-14T20:19:30.966Z,21.20
2022-09-14T20:22:07.036Z,23.05
2022-09-14T20:24:44.271Z,20.13
2022-09-14T20:27:13.794Z,18.95
2022-09-14T20:29:43.382Z,25.10
2022-09-14T20:32:20.175Z,25.77
2022-09-14T20:34:49.019Z,21.67
2022-09-14T20:37:18.779Z,26.38
2022-09-14T20:39:48.493Z,25.00
2022-09-14T20:42:16.868Z,33.15
2022-09-14T20:44:46.496Z,23.60
2022-09-14T20:47:25.301Z,24.02
2022-09-14T20:49:59.811Z,25.17
2022-09-14T20:52:28.433Z,20.77
2022-09-14T20:54:57.223Z,27.30
2022-09-14T20:57:27.440Z,22.75
2022-09-14T20:59:58.069Z,21.52
2022-09-14T21:02:43.766Z,25.00
2022-09-14T21:05:12.936Z,20.20
2022-09-14T21:07:55.464Z,26.30
2022-09-14T21:11:12.031Z,16.58
2022-09-14T21:13:15.171Z,18.80
2022-09-14T21:15:45.569Z,20.70
2022-09-14T21:18:25.288Z,25.52
2022-09-14T21:20:53.620Z,25.77
2022-09-14T21:23:24.144Z,29.95
2022-09-14T21:25:56.532Z,24.25
2022-09-14T21:28:26.638Z,22.33
2022-09-14T21:31:04.963Z,27.55
2022-09-14T21:33:35.713Z,26.80
2022-09-14T21:36:10.532Z,19.73
2022-09-14T21:38:39.149Z,16.50
2022-09-14T21:41:08.971Z,17.67
2022-09-14T21:43:42.024Z,15.20
2022-09-14T21:46:11.540Z,18.73
2022-09-14T21:48:57.576Z,20.15
2022-09-14T21:51:29.131Z,23.30
2022-09-14T21:54:07.503Z,17.08
2022-09-14T21:56:39.477Z,18.88
2022-09-14T21:59:14.929Z,16.95
2022-09-14T22:01:45.480Z,20.33
2022-09-14T22:04:23.974Z,15.77
2022-09-14T22:06:53.874Z,17.10
2022-09-14T22:09:24.910Z,15.88
2022-09-14T22:11:56.117Z,27.17
2022-09-14T22:14:26.149Z,22.20
2022-09-14T22:16:56.244Z,25.05
2022-09-14T22:19:29.125Z,24.10
2022-09-14T22:22:00.931Z,22.17
2022-09-14T22:24:38.233Z,20.33
2022-09-14T22:27:10.517Z,24.00
2022-09-14T22:29:40.624Z,27.60
2022-09-14T22:32:12.545Z,24.92
2022-09-14T22:34:42.280Z,29.23
2022-09-14T22:37:13.511Z,28.42
2022-09-14T22:39:45.383Z,35.35
2022-09-14T22:42:15.185Z,34.40
2022-09-14T22:44:43.617Z,35.33
2022-09-14T22:47:17.142Z,28.13
2022-09-14T22:49:45.804Z,32.88
2022-09-14T22:52:14.681Z,26.77
2022-09-14T22:54:45.349Z,34.60
2022-09-14T22:57:13.561Z,24.88
2022-09-14T22:59:42.480Z,33.67
2022-09-14T23:02:12.125Z,35.85
2022-09-14T23:04:40.931Z,30.67
2022-09-14T23:07:09.911Z,41.75
2022-09-14T23:09:39.424Z,33.97
2022-09-14T23:12:08.819Z,33.53
2022-09-14T23:14:43.122Z,31.77
2022-09-14T23:17:11.483Z,28.95
2022-09-14T23:19:39.707Z,31.58
2022-09-14T23:22:08.148Z,27.08
2022-09-14T23:24:44.274Z,23.30
2022-09-14T23:27:14.449Z,23.05
2022-09-14T23:29:43.624Z,27.15
2022-09-14T23:32:12.261Z,20.48
2022-09-14T23:34:41.603Z,28.95
2022-09-14T23:37:11.448Z,25.80
2022-09-14T23:39:41.752Z,19.60
2022-09-14T23:42:10.753Z,22.63
2022-09-14T23:44:41.206Z,32.85
2022-09-14T23:47:09.582Z,21.80
2022-09-14T23:49:38.999Z,28.98
2022-09-14T23:52:09.193Z,23.77
2022-09-14T23:54:43.796Z,23.70
2022-09-14T23:57:13.720Z,22.88
2022-09-14T23:59:45.736Z,20.75
